sensor_id;sensor_type;location;lat;lon;timestamp;P1;durP1;ratioP1;P2;durP2;ratioP2
30723;SDS011;17473;52.286;20.930;2023-09-18T00:01:25;7.75;;;3.80;;
30723;SDS011;17473;52.286;20.930;2023-09-18T00:03:52;5.22;;;4.43;;
30723;SDS011;17473;52.286;20.930;2023-09-18T00:06:19;7.45;;;4.03;;
30723;SDS011;17473;52.286;20.930;2023-09-18T00:08:49;9.68;;;4.70;;
30723;SDS011;17473;52.286;20.930;2023-09-18T00:11:18;4.63;;;4.15;;
30723;SDS011;17473;52.286;20.930;2023-09-18T00:13:45;7.13;;;4.95;;
30723;SDS011;17473;52.286;20.930;2023-09-18T00:16:12;8.63;;;4.63;;
30723;SDS011;17473;52.286;20.930;2023-09-18T00:18:39;7.10;;;4.75;;
30723;SDS011;17473;52.286;20.930;2023-09-18T00:21:07;7.10;;;4.78;;
30723;SDS011;17473;52.286;20.930;2023-09-18T00:23:37;4.82;;;4.13;;
30723;SDS011;17473;52.286;20.930;2023-09-18T00:26:04;6.93;;;5.15;;
30723;SDS011;17473;52.286;20.930;2023-09-18T00:28:31;7.07;;;4.78;;
30723;SDS011;17473;52.286;20.930;2023-09-18T00:30:58;6.00;;;4.85;;
30723;SDS011;17473;52.286;20.930;2023-09-18T00:33:25;7.78;;;4.78;;
30723;SDS011;17473;52.286;20.930;2023-09-18T00:35:52;7.65;;;5.00;;
30723;SDS011;17473;52.286;20.930;2023-09-18T00:38:20;5.65;;;5.05;;
30723;SDS011;17473;52.286;20.930;2023-09-18T00:40:47;6.75;;;5.72;;
30723;SDS011;17473;52.286;20.930;2023-09-18T00:43:14;7.68;;;5.57;;
30723;SDS011;17473;52.286;20.930;2023-09-18T00:45:42;6.50;;;5.30;;
30723;SDS011;17473;52.286;20.930;2023-09-18T00:48:17;7.30;;;5.93;;
30723;SDS011;17473;52.286;20.930;2023-09-18T00:50:44;6.25;;;5.20;;
30723;SDS011;17473;52.286;20.930;2023-09-18T00:53:13;7.68;;;6.13;;
30723;SDS011;17473;52.286;20.930;2023-09-18T00:55:47;6.30;;;5.38;;
30723;SDS011;17473;52.286;20.930;2023-09-18T00:58:19;5.82;;;5.22;;
30723;SDS011;17473;52.286;20.930;2023-09-18T01:00:47;5.55;;;5.05;;
30723;SDS011;17473;52.286;20.930;2023-09-18T01:03:18;7.38;;;5.57;;
30723;SDS011;17473;52.286;20.930;2023-09-18T01:05:47;7.45;;;5.80;;
30723;SDS011;17473;52.286;20.930;2023-09-18T01:08:14;7.90;;;5.47;;
30723;SDS011;17473;52.286;20.930;2023-09-18T01:14:01;10.15;;;6.18;;
30723;SDS011;17473;52.286;20.930;2023-09-18T01:16:51;8.98;;;6.55;;
30723;SDS011;17473;52.286;20.930;2023-09-18T01:19:36;7.88;;;6.20;;
30723;SDS011;17473;52.286;20.930;2023-09-18T01:22:08;9.45;;;6.07;;
30723;SDS011;17473;52.286;20.930;2023-09-18T01:24:37;7.32;;;5.93;;
30723;SDS011;17473;52.286;20.930;2023-09-18T01:27:09;10.75;;;6.03;;
30723;SDS011;17473;52.286;20.930;2023-09-18T01:29:43;7.70;;;6.00;;
30723;SDS011;17473;52.286;20.930;2023-09-18T01:41:35;8.40;;;7.10;;
30723;SDS011;17473;52.286;20.930;2023-09-18T02:20:42;14.20;;;6.78;;
30723;SDS011;17473;52.286;20.930;2023-09-18T02:23:13;8.80;;;6.55;;
30723;SDS011;17473;52.286;20.930;2023-09-18T02:25:42;12.13;;;7.18;;
30723;SDS011;17473;52.286;20.930;2023-09-18T02:28:09;9.20;;;6.40;;
30723;SDS011;17473;52.286;20.930;2023-09-18T02:30:36;9.60;;;6.72;;
30723;SDS011;17473;52.286;20.930;2023-09-18T02:33:03;8.50;;;7.35;;
30723;SDS011;17473;52.286;20.930;2023-09-18T02:35:31;6.95;;;5.70;;
30723;SDS011;17473;52.286;20.930;2023-09-18T02:37:58;9.88;;;6.50;;
30723;SDS011;17473;52.286;20.930;2023-09-18T02:40:26;7.38;;;6.07;;
30723;SDS011;17473;52.286;20.930;2023-09-18T02:42:54;9.90;;;6.90;;
30723;SDS011;17473;52.286;20.930;2023-09-18T02:45:21;8.30;;;6.35;;
30723;SDS011;17473;52.286;20.930;2023-09-18T02:47:48;7.97;;;6.75;;
30723;SDS011;17473;52.286;20.930;2023-09-18T02:50:15;6.80;;;6.05;;
30723;SDS011;17473;52.286;20.930;2023-09-18T02:52:42;9.63;;;6.40;;
30723;SDS011;17473;52.286;20.930;2023-09-18T02:55:09;8.18;;;6.60;;
30723;SDS011;17473;52.286;20.930;2023-09-18T02:57:36;10.45;;;6.25;;
30723;SDS011;17473;52.286;20.930;2023-09-18T03:00:04;7.40;;;6.03;;
30723;SDS011;17473;52.286;20.930;2023-09-18T03:02:32;8.57;;;7.00;;
30723;SDS011;17473;52.286;20.930;2023-09-18T03:04:59;10.63;;;6.85;;
30723;SDS011;17473;52.286;20.930;2023-09-18T03:07:26;7.15;;;6.03;;
30723;SDS011;17473;52.286;20.930;2023-09-18T03:09:55;8.65;;;6.68;;
30723;SDS011;17473;52.286;20.930;2023-09-18T03:12:22;9.23;;;6.25;;
30723;SDS011;17473;52.286;20.930;2023-09-18T03:14:50;9.57;;;6.38;;
30723;SDS011;17473;52.286;20.930;2023-09-18T03:17:17;7.40;;;6.22;;
30723;SDS011;17473;52.286;20.930;2023-09-18T03:19:47;8.48;;;5.90;;
30723;SDS011;17473;52.286;20.930;2023-09-18T03:22:15;7.53;;;6.13;;
30723;SDS011;17473;52.286;20.930;2023-09-18T03:24:42;7.05;;;5.82;;
30723;SDS011;17473;52.286;20.930;2023-09-18T03:27:09;10.63;;;6.80;;
30723;SDS011;17473;52.286;20.930;2023-09-18T03:29:36;9.48;;;6.68;;
30723;SDS011;17473;52.286;20.930;2023-09-18T03:32:04;8.25;;;6.50;;
30723;SDS011;17473;52.286;20.930;2023-09-18T03:34:31;7.95;;;6.30;;
30723;SDS011;17473;52.286;20.930;2023-09-18T03:36:58;9.32;;;6.00;;
30723;SDS011;17473;52.286;20.930;2023-09-18T03:39:25;10.38;;;6.50;;
30723;SDS011;17473;52.286;20.930;2023-09-18T03:41:52;8.70;;;6.43;;
30723;SDS011;17473;52.286;20.930;2023-09-18T03:44:20;11.27;;;6.78;;
30723;SDS011;17473;52.286;20.930;2023-09-18T03:46:47;7.95;;;7.05;;
30723;SDS011;17473;52.286;20.930;2023-09-18T03:49:14;8.32;;;6.70;;
30723;SDS011;17473;52.286;20.930;2023-09-18T03:51:41;8.02;;;7.10;;
30723;SDS011;17473;52.286;20.930;2023-09-18T03:54:09;9.40;;;6.85;;
30723;SDS011;17473;52.286;20.930;2023-09-18T03:56:36;10.50;;;6.65;;
30723;SDS011;17473;52.286;20.930;2023-09-18T03:59:03;9.25;;;6.93;;
30723;SDS011;17473;52.286;20.930;2023-09-18T04:01:31;6.70;;;5.93;;
30723;SDS011;17473;52.286;20.930;2023-09-18T04:03:58;8.32;;;6.32;;
30723;SDS011;17473;52.286;20.930;2023-09-18T04:06:36;9.40;;;7.18;;
30723;SDS011;17473;52.286;20.930;2023-09-18T04:09:08;7.47;;;6.30;;
30723;SDS011;17473;52.286;20.930;2023-09-18T04:11:36;9.90;;;7.35;;
30723;SDS011;17473;52.286;20.930;2023-09-18T04:14:03;7.30;;;6.50;;
30723;SDS011;17473;52.286;20.930;2023-09-18T04:16:30;9.23;;;7.82;;
30723;SDS011;17473;52.286;20.930;2023-09-18T04:18:57;8.50;;;6.78;;
30723;SDS011;17473;52.286;20.930;2023-09-18T04:21:24;10.32;;;7.63;;
30723;SDS011;17473;52.286;20.930;2023-09-18T04:23:51;9.15;;;7.63;;
30723;SDS011;17473;52.286;20.930;2023-09-18T04:26:24;8.48;;;6.85;;
30723;SDS011;17473;52.286;20.930;2023-09-18T04:28:59;10.48;;;7.30;;
30723;SDS011;17473;52.286;20.930;2023-09-18T04:31:29;14.68;;;7.88;;
30723;SDS011;17473;52.286;20.930;2023-09-18T04:33:56;8.63;;;6.72;;
30723;SDS011;17473;52.286;20.930;2023-09-18T04:36:24;16.17;;;7.95;;
30723;SDS011;17473;52.286;20.930;2023-09-18T04:38:51;11.93;;;7.40;;
30723;SDS011;17473;52.286;20.930;2023-09-18T04:41:18;10.95;;;7.97;;
30723;SDS011;17473;52.286;20.930;2023-09-18T04:43:45;12.20;;;8.32;;
30723;SDS011;17473;52.286;20.930;2023-09-18T04:46:13;11.98;;;8.32;;
30723;SDS011;17473;52.286;20.930;2023-09-18T04:48:40;9.02;;;7.85;;
30723;SDS011;17473;52.286;20.930;2023-09-18T04:51:07;10.82;;;8.13;;
30723;SDS011;17473;52.286;20.930;2023-09-18T04:53:34;11.27;;;8.75;;
30723;SDS011;17473;52.286;20.930;2023-09-18T04:56:01;13.30;;;9.10;;
30723;SDS011;17473;52.286;20.930;2023-09-18T04:58:32;11.30;;;8.68;;
30723;SDS011;17473;52.286;20.930;2023-09-18T05:00:59;11.32;;;8.55;;
30723;SDS011;17473;52.286;20.930;2023-09-18T05:03:26;14.38;;;9.02;;
30723;SDS011;17473;52.286;20.930;2023-09-18T05:05:55;12.40;;;8.82;;
30723;SDS011;17473;52.286;20.930;2023-09-18T05:08:23;11.05;;;8.32;;
30723;SDS011;17473;52.286;20.930;2023-09-18T05:10:50;12.20;;;8.25;;
30723;SDS011;17473;52.286;20.930;2023-09-18T05:13:17;13.30;;;9.57;;
30723;SDS011;17473;52.286;20.930;2023-09-18T05:15:44;17.38;;;8.93;;
30723;SDS011;17473;52.286;20.930;2023-09-18T05:18:11;17.63;;;8.80;;
30723;SDS011;17473;52.286;20.930;2023-09-18T05:20:39;11.45;;;8.57;;
30723;SDS011;17473;52.286;20.930;2023-09-18T05:23:06;14.85;;;9.40;;
30723;SDS011;17473;52.286;20.930;2023-09-18T05:25:34;10.50;;;9.00;;
30723;SDS011;17473;52.286;20.930;2023-09-18T05:28:04;13.13;;;8.93;;
30723;SDS011;17473;52.286;20.930;2023-09-18T05:30:34;10.80;;;8.73;;
30723;SDS011;17473;52.286;20.930;2023-09-18T05:33:05;12.63;;;8.95;;
30723;SDS011;17473;52.286;20.930;2023-09-18T05:35:35;15.00;;;8.50;;
30723;SDS011;17473;52.286;20.930;2023-09-18T05:38:08;11.50;;;9.10;;
30723;SDS011;17473;52.286;20.930;2023-09-18T05:40:37;11.05;;;9.18;;
30723;SDS011;17473;52.286;20.930;2023-09-18T05:43:07;12.48;;;8.80;;
30723;SDS011;17473;52.286;20.930;2023-09-18T05:45:34;14.70;;;9.23;;
30723;SDS011;17473;52.286;20.930;2023-09-18T05:48:02;12.15;;;9.73;;
30723;SDS011;17473;52.286;20.930;2023-09-18T05:50:31;16.02;;;9.35;;
30723;SDS011;17473;52.286;20.930;2023-09-18T05:53:02;13.38;;;8.73;;
30723;SDS011;17473;52.286;20.930;2023-09-18T05:55:32;10.15;;;7.95;;
30723;SDS011;17473;52.286;20.930;2023-09-18T05:58:00;14.30;;;8.57;;
30723;SDS011;17473;52.286;20.930;2023-09-18T06:00:30;15.45;;;8.52;;
30723;SDS011;17473;52.286;20.930;2023-09-18T06:02:58;10.68;;;7.93;;
30723;SDS011;17473;52.286;20.930;2023-09-18T06:05:26;16.48;;;8.48;;
30723;SDS011;17473;52.286;20.930;2023-09-18T06:07:53;11.82;;;8.50;;
30723;SDS011;17473;52.286;20.930;2023-09-18T06:10:20;10.63;;;8.40;;
30723;SDS011;17473;52.286;20.930;2023-09-18T06:12:47;15.00;;;7.60;;
30723;SDS011;17473;52.286;20.930;2023-09-18T06:15:14;10.25;;;8.10;;
30723;SDS011;17473;52.286;20.930;2023-09-18T06:17:42;10.35;;;7.22;;
30723;SDS011;17473;52.286;20.930;2023-09-18T06:20:10;14.52;;;7.65;;
30723;SDS011;17473;52.286;20.930;2023-09-18T06:22:42;13.98;;;7.45;;
30723;SDS011;17473;52.286;20.930;2023-09-18T06:25:09;10.18;;;7.38;;
30723;SDS011;17473;52.286;20.930;2023-09-18T06:27:37;9.75;;;7.18;;
30723;SDS011;17473;52.286;20.930;2023-09-18T06:30:05;8.77;;;6.85;;
30723;SDS011;17473;52.286;20.930;2023-09-18T06:32:33;11.68;;;7.05;;
30723;SDS011;17473;52.286;20.930;2023-09-18T06:35:01;8.93;;;7.88;;
30723;SDS011;17473;52.286;20.930;2023-09-18T06:37:28;10.50;;;7.75;;
30723;SDS011;17473;52.286;20.930;2023-09-18T06:39:55;8.00;;;6.95;;
30723;SDS011;17473;52.286;20.930;2023-09-18T06:42:25;13.52;;;7.47;;
30723;SDS011;17473;52.286;20.930;2023-09-18T06:44:52;13.57;;;7.43;;
30723;SDS011;17473;52.286;20.930;2023-09-18T06:47:19;10.23;;;6.93;;
30723;SDS011;17473;52.286;20.930;2023-09-18T06:49:46;10.45;;;7.22;;
30723;SDS011;17473;52.286;20.930;2023-09-18T06:52:14;11.10;;;9.30;;
30723;SDS011;17473;52.286;20.930;2023-09-18T06:54:41;11.32;;;8.00;;
30723;SDS011;17473;52.286;20.930;2023-09-18T06:57:10;13.30;;;7.57;;
30723;SDS011;17473;52.286;20.930;2023-09-18T06:59:37;9.60;;;7.07;;
30723;SDS011;17473;52.286;20.930;2023-09-18T07:02:04;19.15;;;8.35;;
30723;SDS011;17473;52.286;20.930;2023-09-18T07:04:33;8.80;;;6.18;;
30723;SDS011;17473;52.286;20.930;2023-09-18T07:07:00;11.85;;;7.45;;
30723;SDS011;17473;52.286;20.930;2023-09-18T07:09:27;9.07;;;7.35;;
30723;SDS011;17473;52.286;20.930;2023-09-18T07:11:54;13.13;;;7.63;;
30723;SDS011;17473;52.286;20.930;2023-09-18T07:14:21;7.55;;;6.28;;
30723;SDS011;17473;52.286;20.930;2023-09-18T07:16:48;8.82;;;6.88;;
30723;SDS011;17473;52.286;20.930;2023-09-18T07:19:15;9.07;;;6.30;;
30723;SDS011;17473;52.286;20.930;2023-09-18T07:21:43;9.88;;;6.32;;
30723;SDS011;17473;52.286;20.930;2023-09-18T07:24:11;11.75;;;5.82;;
30723;SDS011;17473;52.286;20.930;2023-09-18T07:26:44;9.68;;;6.78;;
30723;SDS011;17473;52.286;20.930;2023-09-18T07:29:16;10.60;;;6.70;;
30723;SDS011;17473;52.286;20.930;2023-09-18T07:31:43;10.48;;;6.43;;
30723;SDS011;17473;52.286;20.930;2023-09-18T07:34:11;8.48;;;6.63;;
30723;SDS011;17473;52.286;20.930;2023-09-18T07:36:40;8.07;;;6.65;;
30723;SDS011;17473;52.286;20.930;2023-09-18T07:39:07;9.05;;;6.10;;
30723;SDS011;17473;52.286;20.930;2023-09-18T07:41:34;11.63;;;6.82;;
30723;SDS011;17473;52.286;20.930;2023-09-18T07:44:01;7.13;;;5.70;;
30723;SDS011;17473;52.286;20.930;2023-09-18T07:46:28;9.35;;;5.53;;
30723;SDS011;17473;52.286;20.930;2023-09-18T07:48:55;13.93;;;6.13;;
30723;SDS011;17473;52.286;20.930;2023-09-18T07:51:22;8.20;;;6.07;;
30723;SDS011;17473;52.286;20.930;2023-09-18T07:53:49;11.75;;;8.93;;
30723;SDS011;17473;52.286;20.930;2023-09-18T07:56:17;10.68;;;7.85;;
30723;SDS011;17473;52.286;20.930;2023-09-18T07:58:45;7.55;;;5.88;;
30723;SDS011;17473;52.286;20.930;2023-09-18T08:01:13;7.35;;;5.13;;
30723;SDS011;17473;52.286;20.930;2023-09-18T08:03:42;8.07;;;5.65;;
30723;SDS011;17473;52.286;20.930;2023-09-18T08:06:10;9.63;;;5.47;;
30723;SDS011;17473;52.286;20.930;2023-09-18T08:08:38;22.73;;;6.07;;
30723;SDS011;17473;52.286;20.930;2023-09-18T08:11:09;13.50;;;6.28;;
30723;SDS011;17473;52.286;20.930;2023-09-18T08:13:36;7.05;;;5.53;;
30723;SDS011;17473;52.286;20.930;2023-09-18T08:16:06;10.43;;;5.80;;
30723;SDS011;17473;52.286;20.930;2023-09-18T08:18:34;13.10;;;6.07;;
30723;SDS011;17473;52.286;20.930;2023-09-18T08:21:02;9.57;;;5.53;;
30723;SDS011;17473;52.286;20.930;2023-09-18T08:23:31;7.65;;;6.00;;
30723;SDS011;17473;52.286;20.930;2023-09-18T08:25:58;6.35;;;5.72;;
30723;SDS011;17473;52.286;20.930;2023-09-18T08:28:26;7.97;;;5.75;;
30723;SDS011;17473;52.286;20.930;2023-09-18T08:30:53;7.85;;;5.78;;
30723;SDS011;17473;52.286;20.930;2023-09-18T08:33:20;8.07;;;5.20;;
30723;SDS011;17473;52.286;20.930;2023-09-18T08:35:48;8.18;;;6.20;;
30723;SDS011;17473;52.286;20.930;2023-09-18T08:38:19;7.47;;;5.38;;
30723;SDS011;17473;52.286;20.930;2023-09-18T08:40:46;7.10;;;5.60;;
30723;SDS011;17473;52.286;20.930;2023-09-18T08:43:14;10.77;;;5.82;;
30723;SDS011;17473;52.286;20.930;2023-09-18T08:45:52;7.53;;;5.28;;
30723;SDS011;17473;52.286;20.930;2023-09-18T08:48:22;8.80;;;6.22;;
30723;SDS011;17473;52.286;20.930;2023-09-18T08:50:50;5.95;;;5.28;;
30723;SDS011;17473;52.286;20.930;2023-09-18T08:53:18;13.73;;;5.78;;
30723;SDS011;17473;52.286;20.930;2023-09-18T08:55:45;9.57;;;5.80;;
30723;SDS011;17473;52.286;20.930;2023-09-18T08:58:12;12.70;;;5.38;;
30723;SDS011;17473;52.286;20.930;2023-09-18T09:00:40;6.45;;;5.25;;
30723;SDS011;17473;52.286;20.930;2023-09-18T09:03:07;5.82;;;4.88;;
30723;SDS011;17473;52.286;20.930;2023-09-18T09:05:36;5.75;;;5.15;;
30723;SDS011;17473;52.286;20.930;2023-09-18T09:08:03;11.15;;;5.28;;
30723;SDS011;17473;52.286;20.930;2023-09-18T09:10:30;7.80;;;5.25;;
30723;SDS011;17473;52.286;20.930;2023-09-18T09:12:58;8.70;;;4.97;;
30723;SDS011;17473;52.286;20.930;2023-09-18T09:15:27;7.57;;;5.28;;
30723;SDS011;17473;52.286;20.930;2023-09-18T09:18:05;5.43;;;4.75;;
30723;SDS011;17473;52.286;20.930;2023-09-18T09:20:35;5.68;;;4.95;;
30723;SDS011;17473;52.286;20.930;2023-09-18T09:23:04;9.75;;;5.05;;
30723;SDS011;17473;52.286;20.930;2023-09-18T09:25:35;4.95;;;4.40;;
30723;SDS011;17473;52.286;20.930;2023-09-18T09:28:04;6.75;;;5.18;;
30723;SDS011;17473;52.286;20.930;2023-09-18T09:30:33;6.03;;;4.80;;
30723;SDS011;17473;52.286;20.930;2023-09-18T09:33:03;6.78;;;4.82;;
30723;SDS011;17473;52.286;20.930;2023-09-18T09:35:33;5.88;;;4.78;;
30723;SDS011;17473;52.286;20.930;2023-09-18T09:38:12;5.80;;;4.50;;
30723;SDS011;17473;52.286;20.930;2023-09-18T09:40:43;7.03;;;5.03;;
30723;SDS011;17473;52.286;20.930;2023-09-18T09:43:12;4.68;;;4.28;;
30723;SDS011;17473;52.286;20.930;2023-09-18T09:45:41;6.88;;;4.55;;
30723;SDS011;17473;52.286;20.930;2023-09-18T09:48:09;8.52;;;4.05;;
30723;SDS011;17473;52.286;20.930;2023-09-18T09:50:46;5.63;;;4.03;;
30723;SDS011;17473;52.286;20.930;2023-09-18T09:53:15;9.55;;;4.20;;
30723;SDS011;17473;52.286;20.930;2023-09-18T09:55:43;4.85;;;4.05;;
30723;SDS011;17473;52.286;20.930;2023-09-18T09:58:11;5.28;;;4.22;;
30723;SDS011;17473;52.286;20.930;2023-09-18T10:00:45;9.18;;;5.00;;
30723;SDS011;17473;52.286;20.930;2023-09-18T10:03:17;5.93;;;4.43;;
30723;SDS011;17473;52.286;20.930;2023-09-18T10:05:47;7.78;;;4.65;;
30723;SDS011;17473;52.286;20.930;2023-09-18T10:08:24;7.53;;;4.45;;
30723;SDS011;17473;52.286;20.930;2023-09-18T10:11:01;6.32;;;4.70;;
30723;SDS011;17473;52.286;20.930;2023-09-18T10:13:42;5.90;;;4.35;;
30723;SDS011;17473;52.286;20.930;2023-09-18T10:16:37;4.97;;;4.03;;
30723;SDS011;17473;52.286;20.930;2023-09-18T10:19:14;6.38;;;3.97;;
30723;SDS011;17473;52.286;20.930;2023-09-18T10:24:50;6.05;;;3.80;;
30723;SDS011;17473;52.286;20.930;2023-09-18T10:27:26;6.60;;;4.70;;
30723;SDS011;17473;52.286;20.930;2023-09-18T10:29:55;6.10;;;4.70;;
30723;SDS011;17473;52.286;20.930;2023-09-18T10:32:23;7.07;;;4.10;;
30723;SDS011;17473;52.286;20.930;2023-09-18T10:34:54;5.07;;;3.80;;
30723;SDS011;17473;52.286;20.930;2023-09-18T10:37:22;6.30;;;4.05;;
30723;SDS011;17473;52.286;20.930;2023-09-18T10:39:50;9.38;;;4.10;;
30723;SDS011;17473;52.286;20.930;2023-09-18T10:42:19;5.85;;;3.75;;
30723;SDS011;17473;52.286;20.930;2023-09-18T10:44:49;7.82;;;3.75;;
30723;SDS011;17473;52.286;20.930;2023-09-18T10:47:17;4.60;;;4.03;;
30723;SDS011;17473;52.286;20.930;2023-09-18T10:49:46;4.38;;;3.38;;
30723;SDS011;17473;52.286;20.930;2023-09-18T10:52:16;4.85;;;3.70;;
30723;SDS011;17473;52.286;20.930;2023-09-18T10:54:43;10.75;;;6.30;;
30723;SDS011;17473;52.286;20.930;2023-09-18T10:57:11;12.70;;;6.65;;
30723;SDS011;17473;52.286;20.930;2023-09-18T10:59:47;4.72;;;3.85;;
30723;SDS011;17473;52.286;20.930;2023-09-18T11:02:15;6.28;;;4.28;;
30723;SDS011;17473;52.286;20.930;2023-09-18T11:04:44;5.90;;;3.75;;
30723;SDS011;17473;52.286;20.930;2023-09-18T11:07:21;9.45;;;4.82;;
30723;SDS011;17473;52.286;20.930;2023-09-18T11:09:49;7.05;;;4.13;;
30723;SDS011;17473;52.286;20.930;2023-09-18T11:12:17;4.80;;;3.60;;
30723;SDS011;17473;52.286;20.930;2023-09-18T11:20:07;5.47;;;4.43;;
30723;SDS011;17473;52.286;20.930;2023-09-18T11:25:44;4.45;;;4.03;;
30723;SDS011;17473;52.286;20.930;2023-09-18T11:30:51;5.03;;;4.25;;
30723;SDS011;17473;52.286;20.930;2023-09-18T11:36:09;5.65;;;5.05;;
30723;SDS011;17473;52.286;20.930;2023-09-18T11:38:57;9.65;;;4.30;;
30723;SDS011;17473;52.286;20.930;2023-09-18T11:41:31;7.30;;;4.70;;
30723;SDS011;17473;52.286;20.930;2023-09-18T11:46:46;4.85;;;4.35;;
30723;SDS011;17473;52.286;20.930;2023-09-18T11:49:21;5.95;;;5.15;;
30723;SDS011;17473;52.286;20.930;2023-09-18T11:51:53;6.22;;;4.45;;
30723;SDS011;17473;52.286;20.930;2023-09-18T11:54:24;9.05;;;5.07;;
30723;SDS011;17473;52.286;20.930;2023-09-18T11:57:00;4.85;;;4.30;;
30723;SDS011;17473;52.286;20.930;2023-09-18T11:59:40;5.43;;;4.20;;
30723;SDS011;17473;52.286;20.930;2023-09-18T12:02:13;6.93;;;4.80;;
30723;SDS011;17473;52.286;20.930;2023-09-18T12:04:55;10.05;;;5.32;;
30723;SDS011;17473;52.286;20.930;2023-09-18T12:07:23;5.70;;;4.53;;
30723;SDS011;17473;52.286;20.930;2023-09-18T12:09:51;6.07;;;5.30;;
30723;SDS011;17473;52.286;20.930;2023-09-18T12:12:21;6.72;;;5.22;;
30723;SDS011;17473;52.286;20.930;2023-09-18T12:14:48;7.55;;;5.22;;
30723;SDS011;17473;52.286;20.930;2023-09-18T12:17:15;7.28;;;4.95;;
30723;SDS011;17473;52.286;20.930;2023-09-18T12:19:52;6.22;;;5.50;;
30723;SDS011;17473;52.286;20.930;2023-09-18T12:22:27;11.35;;;6.25;;
30723;SDS011;17473;52.286;20.930;2023-09-18T12:25:14;8.88;;;5.80;;
30723;SDS011;17473;52.286;20.930;2023-09-18T12:27:44;9.38;;;6.43;;
30723;SDS011;17473;52.286;20.930;2023-09-18T12:30:12;6.75;;;5.97;;
30723;SDS011;17473;52.286;20.930;2023-09-18T12:32:47;7.95;;;6.10;;
30723;SDS011;17473;52.286;20.930;2023-09-18T12:35:19;8.02;;;6.10;;
30723;SDS011;17473;52.286;20.930;2023-09-18T12:37:47;12.02;;;6.45;;
30723;SDS011;17473;52.286;20.930;2023-09-18T12:40:28;11.23;;;6.47;;
30723;SDS011;17473;52.286;20.930;2023-09-18T12:42:57;7.57;;;6.18;;
30723;SDS011;17473;52.286;20.930;2023-09-18T12:45:26;8.27;;;6.55;;
30723;SDS011;17473;52.286;20.930;2023-09-18T12:47:56;6.60;;;5.88;;
30723;SDS011;17473;52.286;20.930;2023-09-18T12:50:25;8.43;;;5.63;;
30723;SDS011;17473;52.286;20.930;2023-09-18T12:52:53;9.00;;;6.10;;
30723;SDS011;17473;52.286;20.930;2023-09-18T12:55:32;7.28;;;6.40;;
30723;SDS011;17473;52.286;20.930;2023-09-18T12:57:59;7.63;;;6.05;;
30723;SDS011;17473;52.286;20.930;2023-09-18T13:00:31;7.28;;;6.50;;
30723;SDS011;17473;52.286;20.930;2023-09-18T13:02:59;8.77;;;6.45;;
30723;SDS011;17473;52.286;20.930;2023-09-18T13:05:26;7.40;;;5.55;;
30723;SDS011;17473;52.286;20.930;2023-09-18T13:08:02;6.28;;;5.68;;
30723;SDS011;17473;52.286;20.930;2023-09-18T13:10:50;10.07;;;6.10;;
30723;SDS011;17473;52.286;20.930;2023-09-18T13:13:17;7.85;;;6.30;;
30723;SDS011;17473;52.286;20.930;2023-09-18T13:15:48;8.80;;;6.82;;
30723;SDS011;17473;52.286;20.930;2023-09-18T13:18:21;7.97;;;6.60;;
30723;SDS011;17473;52.286;20.930;2023-09-18T13:20:50;6.70;;;5.93;;
30723;SDS011;17473;52.286;20.930;2023-09-18T13:23:19;7.03;;;6.22;;
30723;SDS011;17473;52.286;20.930;2023-09-18T13:25:48;6.55;;;5.80;;
30723;SDS011;17473;52.286;20.930;2023-09-18T13:28:15;11.63;;;6.05;;
30723;SDS011;17473;52.286;20.930;2023-09-18T13:30:44;7.20;;;5.70;;
30723;SDS011;17473;52.286;20.930;2023-09-18T13:33:12;7.47;;;6.10;;
30723;SDS011;17473;52.286;20.930;2023-09-18T13:35:43;10.40;;;6.30;;
30723;SDS011;17473;52.286;20.930;2023-09-18T13:38:12;10.27;;;7.07;;
30723;SDS011;17473;52.286;20.930;2023-09-18T13:40:41;8.88;;;6.25;;
30723;SDS011;17473;52.286;20.930;2023-09-18T13:43:09;13.52;;;6.55;;
30723;SDS011;17473;52.286;20.930;2023-09-18T13:45:37;10.00;;;6.60;;
30723;SDS011;17473;52.286;20.930;2023-09-18T13:48:06;8.10;;;6.78;;
30723;SDS011;17473;52.286;20.930;2023-09-18T13:50:34;9.50;;;6.47;;
30723;SDS011;17473;52.286;20.930;2023-09-18T13:53:03;10.60;;;6.43;;
30723;SDS011;17473;52.286;20.930;2023-09-18T13:55:31;7.55;;;6.05;;
30723;SDS011;17473;52.286;20.930;2023-09-18T13:58:00;7.47;;;6.07;;
30723;SDS011;17473;52.286;20.930;2023-09-18T14:00:30;9.15;;;7.18;;
30723;SDS011;17473;52.286;20.930;2023-09-18T14:02:59;8.07;;;6.28;;
30723;SDS011;17473;52.286;20.930;2023-09-18T14:05:26;10.13;;;6.47;;
30723;SDS011;17473;52.286;20.930;2023-09-18T14:07:56;6.78;;;5.72;;
30723;SDS011;17473;52.286;20.930;2023-09-18T14:10:26;7.13;;;6.10;;
30723;SDS011;17473;52.286;20.930;2023-09-18T14:12:54;10.75;;;6.45;;
30723;SDS011;17473;52.286;20.930;2023-09-18T14:15:21;9.75;;;6.53;;
30723;SDS011;17473;52.286;20.930;2023-09-18T14:17:49;7.68;;;6.70;;
30723;SDS011;17473;52.286;20.930;2023-09-18T14:20:16;8.82;;;6.35;;
30723;SDS011;17473;52.286;20.930;2023-09-18T14:22:46;9.60;;;6.57;;
30723;SDS011;17473;52.286;20.930;2023-09-18T14:25:16;11.75;;;6.72;;
30723;SDS011;17473;52.286;20.930;2023-09-18T14:27:47;11.57;;;5.97;;
30723;SDS011;17473;52.286;20.930;2023-09-18T14:30:14;8.63;;;5.88;;
30723;SDS011;17473;52.286;20.930;2023-09-18T14:32:42;6.53;;;5.40;;
30723;SDS011;17473;52.286;20.930;2023-09-18T14:35:09;6.22;;;5.63;;
30723;SDS011;17473;52.286;20.930;2023-09-18T14:37:37;8.70;;;5.68;;
30723;SDS011;17473;52.286;20.930;2023-09-18T14:40:04;5.63;;;5.05;;
30723;SDS011;17473;52.286;20.930;2023-09-18T14:42:38;9.15;;;5.35;;
30723;SDS011;17473;52.286;20.930;2023-09-18T14:45:05;6.63;;;5.88;;
30723;SDS011;17473;52.286;20.930;2023-09-18T14:47:33;8.82;;;5.45;;
30723;SDS011;17473;52.286;20.930;2023-09-18T14:50:00;8.30;;;5.63;;
30723;SDS011;17473;52.286;20.930;2023-09-18T14:52:28;5.90;;;5.07;;
30723;SDS011;17473;52.286;20.930;2023-09-18T14:54:56;7.68;;;5.50;;
30723;SDS011;17473;52.286;20.930;2023-09-18T14:57:23;7.53;;;5.88;;
30723;SDS011;17473;52.286;20.930;2023-09-18T14:59:51;7.40;;;6.15;;
30723;SDS011;17473;52.286;20.930;2023-09-18T15:02:18;11.05;;;5.57;;
30723;SDS011;17473;52.286;20.930;2023-09-18T15:04:45;9.10;;;5.65;;
30723;SDS011;17473;52.286;20.930;2023-09-18T15:07:14;6.90;;;5.40;;
30723;SDS011;17473;52.286;20.930;2023-09-18T15:09:41;8.25;;;5.45;;
30723;SDS011;17473;52.286;20.930;2023-09-18T15:12:08;8.93;;;4.88;;
30723;SDS011;17473;52.286;20.930;2023-09-18T15:14:38;7.03;;;5.80;;
30723;SDS011;17473;52.286;20.930;2023-09-18T15:17:05;9.90;;;5.10;;
30723;SDS011;17473;52.286;20.930;2023-09-18T15:19:34;9.27;;;5.97;;
30723;SDS011;17473;52.286;20.930;2023-09-18T15:22:01;8.48;;;5.45;;
30723;SDS011;17473;52.286;20.930;2023-09-18T15:24:29;7.95;;;5.82;;
30723;SDS011;17473;52.286;20.930;2023-09-18T15:26:56;5.88;;;5.28;;
30723;SDS011;17473;52.286;20.930;2023-09-18T15:29:24;8.45;;;5.97;;
30723;SDS011;17473;52.286;20.930;2023-09-18T15:32:00;11.90;;;6.03;;
30723;SDS011;17473;52.286;20.930;2023-09-18T15:34:31;9.52;;;6.05;;
30723;SDS011;17473;52.286;20.930;2023-09-18T15:36:59;6.90;;;6.20;;
30723;SDS011;17473;52.286;20.930;2023-09-18T15:39:28;8.30;;;6.18;;
30723;SDS011;17473;52.286;20.930;2023-09-18T15:41:56;9.60;;;5.60;;
30723;SDS011;17473;52.286;20.930;2023-09-18T15:44:23;7.00;;;6.30;;
30723;SDS011;17473;52.286;20.930;2023-09-18T15:46:50;12.90;;;6.13;;
30723;SDS011;17473;52.286;20.930;2023-09-18T15:49:17;11.85;;;6.68;;
30723;SDS011;17473;52.286;20.930;2023-09-18T15:51:44;10.93;;;5.93;;